createdAt,value
2022-10-04T00:01:13.689Z,4.60
2022-10-04T00:03:48.246Z,4.40
2022-10-04T00:06:23.784Z,4.77
2022-10-04T00:08:56.890Z,5.00
2022-10-04T00:11:34.320Z,4.70
2022-10-04T00:14:23.681Z,4.77
2022-10-04T00:17:14.527Z,4.70
2022-10-04T00:19:51.054Z,5.03
2022-10-04T00:22:21.632Z,4.30
2022-10-04T00:25:36.390Z,5.03
2022-10-04T00:28:33.112Z,4.37
2022-10-04T00:31:26.276Z,4.83
2022-10-04T00:33:57.499Z,4.60
2022-10-04T00:36:47.026Z,4.07
2022-10-04T00:39:40.491Z,5.07
2022-10-04T00:42:58.825Z,4.73
2022-10-04T00:45:33.723Z,4.33
2022-10-04T00:48:12.490Z,4.63
2022-10-04T00:50:44.616Z,5.30
2022-10-04T00:53:22.398Z,5.10
2022-10-04T00:55:56.107Z,4.87
2022-10-04T00:58:27.022Z,4.90
2022-10-04T01:00:58.902Z,5.27
2022-10-04T01:03:35.440Z,4.60
2022-10-04T01:06:07.376Z,5.07
2022-10-04T01:08:42.224Z,4.87
2022-10-04T01:11:14.690Z,5.47
2022-10-04T01:13:50.204Z,5.10
2022-10-04T01:16:20.809Z,5.17
2022-10-04T01:19:27.612Z,4.90
2022-10-04T01:22:05.322Z,4.93
2022-10-04T01:24:37.684Z,4.40
2022-10-04T01:27:38.758Z,4.93
2022-10-04T01:30:10.815Z,5.43
2022-10-04T01:32:40.194Z,5.47
2022-10-04T01:35:10.833Z,5.23
2022-10-04T01:38:17.008Z,5.60
2022-10-04T01:40:52.591Z,5.77
2022-10-04T01:43:27.823Z,5.10
2022-10-04T01:46:02.360Z,5.40
2022-10-04T01:48:36.068Z,9.13
2022-10-04T01:51:13.067Z,6.27
2022-10-04T01:53:49.611Z,5.57
2022-10-04T01:56:23.521Z,5.30
2022-10-04T01:58:55.109Z,5.47
2022-10-04T02:01:27.892Z,5.67
2022-10-04T02:03:59.776Z,5.47
2022-10-04T02:06:30.072Z,5.23
2022-10-04T02:08:59.458Z,5.40
2022-10-04T02:11:31.444Z,5.13
2022-10-04T02:14:03.635Z,5.27
2022-10-04T02:16:33.287Z,5.73
2022-10-04T02:19:03.611Z,5.77
2022-10-04T02:21:32.666Z,5.40
2022-10-04T02:24:00.973Z,5.40
2022-10-04T02:26:30.513Z,5.43
2022-10-04T02:28:58.716Z,5.23
2022-10-04T02:31:46.485Z,5.70
2022-10-04T02:34:15.429Z,5.20
2022-10-04T02:36:43.686Z,5.77
2022-10-04T02:39:17.706Z,5.90
2022-10-04T02:41:53.198Z,5.67
2022-10-04T02:44:27.060Z,5.37
2022-10-04T02:46:59.396Z,5.53
2022-10-04T02:49:32.059Z,5.53
2022-10-04T02:52:04.922Z,5.53
2022-10-04T02:54:43.202Z,5.53
2022-10-04T02:57:18.187Z,6.03
2022-10-04T02:59:46.647Z,5.50
2022-10-04T03:02:30.147Z,5.50
2022-10-04T03:05:05.801Z,5.90
2022-10-04T03:07:36.602Z,5.30
2022-10-04T03:10:09.944Z,5.60
2022-10-04T03:12:39.917Z,5.10
2022-10-04T03:15:21.608Z,6.30
2022-10-04T03:18:04.927Z,6.03
2022-10-04T03:20:42.745Z,6.10
2022-10-04T03:23:13.371Z,5.60
2022-10-04T03:25:50.342Z,5.43
2022-10-04T03:28:20.796Z,5.60
2022-10-04T03:30:50.394Z,5.40
2022-10-04T03:33:28.303Z,5.43
2022-10-04T03:36:00.699Z,5.33
2022-10-04T03:38:30.243Z,5.53
2022-10-04T03:41:01.763Z,6.00
2022-10-04T03:43:34.344Z,6.03
2022-10-04T03:46:05.498Z,5.40
2022-10-04T03:48:37.280Z,6.33
2022-10-04T03:51:12.169Z,5.83
2022-10-04T03:53:43.589Z,5.93
2022-10-04T03:56:14.736Z,6.60
2022-10-04T03:58:45.251Z,6.00
2022-10-04T04:01:21.609Z,5.80
2022-10-04T04:04:01.736Z,6.30
2022-10-04T04:06:38.984Z,5.93
2022-10-04T04:09:08.728Z,6.83
2022-10-04T04:11:40.888Z,6.70
2022-10-04T04:14:15.374Z,6.23
2022-10-04T04:16:43.521Z,6.10
2022-10-04T04:19:16.749Z,7.23
2022-10-04T04:21:45.827Z,6.57
2022-10-04T04:24:23.859Z,5.93
2022-10-04T04:26:57.078Z,6.63
2022-10-04T04:29:32.548Z,5.90
2022-10-04T04:32:03.925Z,6.63
2022-10-04T04:34:36.162Z,5.90
2022-10-04T04:37:05.939Z,5.43
2022-10-04T04:39:38.280Z,6.40
2022-10-04T04:42:14.610Z,6.00
2022-10-04T04:44:51.563Z,6.93
2022-10-04T04:47:34.004Z,6.07
2022-10-04T04:50:07.813Z,6.43
2022-10-04T04:52:37.342Z,6.03
2022-10-04T04:55:06.616Z,6.67
2022-10-04T04:57:35.161Z,6.67
2022-10-04T05:00:05.409Z,6.03
2022-10-04T05:02:36.080Z,6.30
2022-10-04T05:05:18.521Z,6.40
2022-10-04T05:07:46.761Z,7.00
2022-10-04T05:10:23.435Z,6.10
2022-10-04T05:12:52.033Z,6.30
2022-10-04T05:15:31.214Z,7.27
2022-10-04T05:17:59.525Z,7.30
2022-10-04T05:20:28.717Z,10.47
2022-10-04T05:22:59.236Z,7.80
2022-10-04T05:25:33.371Z,7.07
2022-10-04T05:28:01.863Z,6.43
2022-10-04T05:31:21.385Z,6.00
2022-10-04T05:34:00.432Z,6.37
2022-10-04T05:37:10.098Z,6.73
2022-10-04T05:39:46.407Z,6.27
2022-10-04T05:42:21.631Z,6.77
2022-10-04T05:44:52.986Z,6.73
2022-10-04T05:47:24.181Z,6.70
2022-10-04T05:49:57.936Z,6.53
2022-10-04T05:52:40.260Z,8.07
2022-10-04T05:55:19.289Z,6.80
2022-10-04T05:57:59.422Z,6.87
2022-10-04T06:00:52.965Z,7.27
2022-10-04T06:03:31.886Z,6.60
2022-10-04T06:06:13.929Z,5.70
2022-10-04T06:08:53.083Z,6.20
2022-10-04T06:11:53.472Z,6.33
2022-10-04T06:14:48.348Z,6.33
2022-10-04T06:18:06.697Z,6.97
2022-10-04T06:21:07.195Z,6.70
2022-10-04T06:23:45.305Z,6.90
2022-10-04T06:26:41.614Z,6.53
2022-10-04T06:29:23.698Z,6.33
2022-10-04T06:32:16.720Z,6.40
2022-10-04T06:39:43.310Z,6.47
2022-10-04T06:42:27.369Z,5.93
2022-10-04T06:45:24.363Z,6.27
2022-10-04T06:48:25.715Z,6.67
2022-10-04T06:51:03.702Z,6.37
2022-10-04T06:53:47.709Z,5.67
2022-10-04T06:56:35.963Z,6.07
2022-10-04T06:59:41.034Z,7.13
2022-10-04T07:02:31.087Z,6.23
2022-10-04T07:05:09.113Z,6.27
2022-10-04T07:07:49.658Z,6.37
2022-10-04T07:10:36.774Z,6.53
2022-10-04T07:13:34.588Z,6.03
2022-10-04T07:16:09.777Z,6.10
2022-10-04T07:19:00.995Z,5.70
2022-10-04T07:21:46.802Z,6.20
2022-10-04T07:24:32.995Z,5.70
2022-10-04T07:27:09.750Z,6.10
2022-10-04T07:29:46.632Z,6.03
2022-10-04T07:32:22.414Z,5.47
2022-10-04T07:34:58.205Z,5.50
2022-10-04T07:37:29.378Z,5.63
2022-10-04T07:40:09.646Z,5.57
2022-10-04T07:42:59.888Z,5.17
2022-10-04T07:45:42.366Z,5.40
2022-10-04T07:48:22.941Z,5.00
2022-10-04T07:51:02.611Z,5.23
2022-10-04T07:53:39.494Z,5.40
2022-10-04T07:56:15.236Z,5.70
2022-10-04T07:58:54.347Z,5.67
2022-10-04T08:01:37.793Z,6.07
2022-10-04T08:04:29.657Z,5.57
2022-10-04T08:07:03.690Z,5.70
2022-10-04T08:09:44.778Z,5.83
2022-10-04T08:12:28.594Z,5.97
2022-10-04T08:15:04.631Z,5.53
2022-10-04T08:17:50.629Z,5.70
2022-10-04T08:20:38.526Z,5.60
2022-10-04T08:23:26.686Z,5.37
2022-10-04T08:26:08.688Z,5.53
2022-10-04T08:29:05.266Z,5.17
2022-10-04T08:31:47.549Z,5.27
2022-10-04T08:34:36.959Z,4.90
2022-10-04T08:37:35.573Z,5.23
2022-10-04T08:40:46.559Z,5.20
2022-10-04T08:43:45.008Z,5.13
2022-10-04T08:47:05.427Z,4.63
2022-10-04T08:50:09.368Z,4.93
2022-10-04T08:53:40.936Z,4.33
2022-10-04T08:56:40.912Z,5.77
2022-10-04T08:59:46.556Z,4.40
2022-10-04T09:03:05.284Z,5.03
2022-10-04T09:06:06.391Z,5.00
2022-10-04T09:09:17.337Z,4.83
2022-10-04T09:12:22.063Z,5.00
2022-10-04T09:15:21.694Z,4.87
2022-10-04T09:18:08.703Z,5.00
2022-10-04T09:20:59.314Z,4.73
2022-10-04T09:24:13.958Z,5.30
2022-10-04T09:26:54.729Z,4.83
2022-10-04T09:29:36.090Z,3.90
2022-10-04T09:32:49.471Z,5.03
2022-10-04T10:02:02.304Z,4.80
2022-10-04T10:04:47.537Z,4.67
2022-10-04T10:07:44.956Z,5.30
2022-10-04T10:10:40.689Z,4.83
2022-10-04T10:13:44.104Z,4.70
2022-10-04T10:16:29.821Z,4.40
2022-10-04T10:23:17.985Z,5.23
2022-10-04T10:25:59.266Z,4.80
2022-10-04T10:28:47.861Z,4.70
2022-10-04T10:31:33.565Z,4.63
2022-10-04T10:34:25.844Z,3.77
2022-10-04T10:37:09.049Z,4.80
2022-10-04T10:39:57.786Z,4.37
2022-10-04T10:43:06.756Z,4.73
2022-10-04T10:45:49.614Z,4.43
2022-10-04T10:48:29.117Z,4.47
2022-10-04T10:51:10.789Z,3.80
2022-10-04T10:54:15.064Z,4.70
2022-10-04T10:56:57.514Z,4.20
2022-10-04T10:59:59.607Z,4.60
2022-10-04T11:03:11.864Z,3.77
2022-10-04T11:06:17.299Z,3.97
2022-10-04T11:09:15.135Z,4.10
2022-10-04T11:12:11.187Z,4.50
2022-10-04T11:15:20.870Z,3.70
2022-10-04T11:18:26.779Z,4.50
2022-10-04T11:21:16.050Z,4.93
2022-10-04T11:24:22.218Z,3.30
2022-10-04T11:27:19.900Z,3.37
2022-10-04T11:30:15.010Z,3.10
2022-10-04T11:33:19.348Z,4.00
2022-10-04T11:36:03.563Z,4.00
2022-10-04T11:38:52.423Z,3.57
2022-10-04T11:41:31.797Z,3.23
2022-10-04T11:44:32.211Z,3.67
2022-10-04T11:47:10.301Z,4.43
2022-10-04T11:49:56.707Z,3.80
2022-10-04T12:23:54.645Z,3.60
2022-10-04T12:26:43.088Z,3.30
2022-10-04T12:29:32.617Z,2.90
2022-10-04T12:32:08.343Z,3.30
2022-10-04T12:34:44.286Z,3.40
2022-10-04T12:37:22.067Z,3.60
2022-10-04T12:40:08.689Z,3.50
2022-10-04T12:42:47.002Z,3.67
2022-10-04T12:45:52.716Z,3.60
2022-10-04T12:48:35.010Z,3.77
2022-10-04T12:51:16.349Z,3.70
2022-10-04T12:53:57.986Z,4.10
2022-10-04T12:56:47.647Z,3.90
2022-10-04T12:59:31.779Z,4.53
2022-10-04T13:02:16.025Z,4.20
2022-10-04T13:04:50.453Z,3.90
2022-10-04T13:07:34.081Z,4.50
2022-10-04T13:10:24.646Z,4.03
2022-10-04T13:13:35.058Z,4.50
2022-10-04T13:19:31.790Z,4.33
2022-10-04T13:22:12.085Z,4.40
2022-10-04T13:24:58.081Z,5.10
2022-10-04T13:27:35.813Z,4.10
2022-10-04T13:30:17.098Z,3.50
2022-10-04T13:33:00.373Z,3.80
2022-10-04T13:35:36.738Z,4.83
2022-10-04T13:38:37.021Z,4.27
2022-10-04T13:41:26.327Z,4.47
2022-10-04T13:44:12.973Z,4.00
2022-10-04T13:46:56.927Z,3.90
2022-10-04T13:49:34.773Z,4.47
2022-10-04T13:52:36.099Z,3.50
2022-10-04T13:55:38.822Z,3.73
2022-10-04T13:58:27.171Z,4.40
2022-10-04T14:01:34.771Z,3.67
2022-10-04T14:04:56.086Z,3.93
2022-10-04T14:07:59.828Z,3.70
2022-10-04T14:11:02.754Z,4.50
2022-10-04T14:14:00.360Z,4.00
2022-10-04T14:16:59.469Z,4.07
2022-10-04T14:20:12.118Z,4.37
2022-10-04T14:23:01.889Z,3.50
2022-10-04T14:25:47.312Z,3.50
2022-10-04T14:28:46.894Z,3.70
2022-10-04T14:31:57.093Z,3.53
2022-10-04T14:34:58.527Z,3.60
2022-10-04T14:38:04.602Z,4.00
2022-10-04T14:41:04.261Z,3.43
2022-10-04T14:44:13.820Z,3.20
2022-10-04T14:46:56.676Z,3.70
2022-10-04T14:49:45.652Z,3.20
2022-10-04T14:52:34.115Z,3.63
2022-10-04T14:58:36.689Z,3.40
2022-10-04T15:01:19.373Z,3.43
2022-10-04T15:03:57.325Z,3.20
2022-10-04T15:06:38.097Z,2.80
2022-10-04T15:09:41.636Z,3.20
2022-10-04T15:13:12.664Z,3.00
2022-10-04T15:16:01.801Z,3.23
2022-10-04T15:18:41.264Z,3.13
2022-10-04T15:21:22.116Z,3.17
2022-10-04T15:23:57.329Z,3.47
2022-10-04T15:27:00.583Z,2.70
2022-10-04T15:32:50.476Z,3.00
2022-10-04T15:35:32.784Z,2.80
2022-10-04T15:38:08.373Z,3.20
2022-10-04T15:41:17.572Z,2.70
2022-10-04T15:44:38.225Z,3.53
2022-10-04T15:52:03.535Z,4.00
2022-10-04T15:58:25.576Z,2.80
2022-10-04T16:01:46.940Z,3.10
2022-10-04T16:04:40.352Z,3.73
2022-10-04T16:07:43.145Z,3.30
2022-10-04T16:10:20.595Z,3.30
2022-10-04T16:13:27.075Z,2.70
2022-10-04T16:16:32.592Z,3.80
2022-10-04T16:23:59.844Z,4.00
2022-10-04T18:08:54.519Z,6.00
2022-10-04T18:11:31.334Z,5.73
2022-10-04T18:14:05.999Z,5.37
2022-10-04T18:16:47.651Z,5.47
2022-10-04T18:19:42.888Z,5.60
2022-10-04T18:22:15.572Z,4.87
2022-10-04T18:24:47.133Z,4.93
2022-10-04T18:31:38.386Z,4.93
2022-10-04T18:34:32.473Z,5.03
2022-10-04T18:37:21.113Z,4.60
2022-10-04T19:06:47.173Z,5.57
2022-10-04T19:09:40.404Z,5.37
2022-10-04T19:12:46.333Z,5.53
2022-10-04T19:25:10.985Z,5.40
2022-10-04T19:27:45.413Z,5.07
2022-10-04T19:35:28.313Z,5.30
2022-10-04T19:38:05.696Z,5.63
2022-10-04T19:40:48.624Z,5.70
2022-10-04T19:43:35.424Z,6.30
2022-10-04T19:46:14.370Z,6.57
2022-10-04T19:49:00.957Z,6.07
2022-10-04T19:56:10.594Z,6.03
2022-10-04T19:58:44.439Z,6.60
2022-10-04T20:02:04.348Z,6.20
2022-10-04T20:04:45.346Z,5.47
2022-10-04T20:07:26.407Z,6.10
2022-10-04T20:10:40.677Z,6.10
2022-10-04T20:23:18.119Z,5.77
2022-10-04T20:26:02.858Z,5.73
2022-10-04T20:28:59.290Z,6.00
2022-10-04T20:32:03.139Z,5.90
2022-10-04T20:35:00.559Z,5.83
2022-10-04T20:38:31.729Z,5.50
2022-10-04T20:41:02.712Z,6.00
2022-10-04T20:43:33.325Z,5.60
2022-10-04T20:46:01.792Z,5.90
2022-10-04T20:48:33.235Z,6.07
2022-10-04T21:09:49.685Z,6.20
2022-10-04T21:12:33.170Z,6.20
2022-10-04T21:15:07.022Z,6.07
2022-10-04T21:17:38.313Z,6.47
2022-10-04T21:20:07.639Z,6.20
2022-10-04T21:22:37.133Z,6.47
2022-10-04T21:25:21.936Z,6.13
2022-10-04T21:27:51.365Z,6.57
2022-10-04T21:30:20.714Z,6.30
2022-10-04T21:32:48.604Z,6.77
2022-10-04T21:35:16.699Z,6.20
2022-10-04T21:37:44.690Z,6.23
2022-10-04T21:40:14.409Z,6.37
2022-10-04T21:42:42.653Z,6.53
2022-10-04T21:45:12.297Z,5.83
2022-10-04T21:47:40.353Z,6.07
2022-10-04T21:50:08.765Z,6.70
2022-10-04T21:52:36.675Z,6.37
2022-10-04T21:55:10.446Z,6.13
2022-10-04T21:57:38.556Z,6.27
2022-10-04T22:00:07.916Z,5.27
2022-10-04T22:02:41.835Z,6.33
2022-10-04T22:05:10.356Z,6.20
2022-10-04T22:07:38.286Z,5.97
2022-10-04T22:10:07.055Z,6.47
2022-10-04T22:12:35.319Z,5.97
2022-10-04T22:15:03.336Z,5.90
2022-10-04T22:17:31.255Z,6.00
2022-10-04T22:20:00.699Z,5.97
2022-10-04T22:22:32.674Z,6.40
2022-10-04T22:25:02.421Z,6.87
2022-10-04T22:27:31.263Z,6.47
2022-10-04T22:29:59.947Z,7.00
2022-10-04T22:32:30.138Z,6.30
2022-10-04T22:35:11.586Z,7.53
2022-10-04T22:37:39.873Z,7.20
2022-10-04T22:40:13.066Z,6.13
2022-10-04T22:42:41.205Z,5.97
2022-10-04T22:45:17.278Z,6.70
2022-10-04T22:47:45.346Z,6.50
2022-10-04T22:50:28.264Z,7.10
2022-10-04T22:52:56.770Z,7.17
2022-10-04T22:55:24.924Z,8.00
2022-10-04T22:57:53.100Z,8.03
2022-10-04T23:00:21.097Z,7.10
2022-10-04T23:02:49.958Z,6.63
2022-10-04T23:05:21.047Z,6.73
2022-10-04T23:07:49.743Z,6.13
2022-10-04T23:10:20.181Z,6.80
2022-10-04T23:12:49.700Z,7.00
2022-10-04T23:15:20.475Z,6.90
2022-10-04T23:17:55.224Z,6.93
2022-10-04T23:20:25.107Z,7.97
2022-10-04T23:22:55.561Z,7.80
2022-10-04T23:25:28.227Z,7.27
2022-10-04T23:27:59.720Z,6.80
2022-10-04T23:30:28.095Z,7.00
2022-10-04T23:33:01.607Z,6.93
2022-10-04T23:35:34.186Z,6.33
2022-10-04T23:38:03.645Z,7.33
2022-10-04T23:40:31.703Z,7.27
2022-10-04T23:43:04.093Z,6.73
2022-10-04T23:45:32.263Z,6.53
2022-10-04T23:48:02.083Z,6.87
2022-10-04T23:50:34.223Z,7.87
2022-10-04T23:53:06.515Z,7.97
2022-10-04T23:55:37.198Z,7.77
2022-10-04T23:58:14.314Z,6.50
